createdAt,value
2018-05-16T00:01:44.859Z,4.10
2018-05-16T00:04:15.288Z,4.00
2018-05-16T00:06:46.426Z,4.37
2018-05-16T00:09:16.660Z,3.90
2018-05-16T00:11:46.378Z,3.80
2018-05-16T00:14:16.499Z,4.00
2018-05-16T00:16:47.431Z,3.77
2018-05-16T00:19:18.383Z,3.40
2018-05-16T00:21:48.116Z,3.60
2018-05-16T00:24:18.307Z,3.70
2018-05-16T00:26:48.020Z,3.53
2018-05-16T00:29:18.179Z,3.87
2018-05-16T00:31:47.935Z,3.90
2018-05-16T00:34:18.222Z,3.87
2018-05-16T00:36:48.344Z,3.60
2018-05-16T00:39:18.415Z,3.90
2018-05-16T00:41:49.359Z,3.50
2018-05-16T00:44:19.467Z,3.43
2018-05-16T00:46:49.593Z,4.30
2018-05-16T00:49:20.458Z,4.17
2018-05-16T00:51:50.585Z,3.77
2018-05-16T00:54:20.775Z,3.43
2018-05-16T00:56:50.892Z,3.37
2018-05-16T00:59:21.631Z,3.23
2018-05-16T01:01:51.747Z,3.10
2018-05-16T01:04:21.882Z,2.83
2018-05-16T01:06:51.985Z,3.23
2018-05-16T01:09:21.748Z,3.37
2018-05-16T01:11:53.335Z,3.30
2018-05-16T01:14:24.808Z,3.10
2018-05-16T01:16:55.180Z,3.37
2018-05-16T01:19:26.472Z,3.50
2018-05-16T01:21:57.517Z,3.70
2018-05-16T01:24:31.197Z,3.70
2018-05-16T01:27:03.387Z,3.40
2018-05-16T01:29:33.716Z,4.10
2018-05-16T01:32:06.700Z,3.90
2018-05-16T01:34:40.079Z,3.90
2018-05-16T01:37:10.224Z,4.03
2018-05-16T01:39:40.347Z,3.63
2018-05-16T01:42:10.140Z,4.10
2018-05-16T01:44:41.402Z,4.80
2018-05-16T01:47:11.516Z,4.47
2018-05-16T01:49:42.227Z,4.20
2018-05-16T01:52:13.087Z,4.60
2018-05-16T01:54:43.536Z,3.97
2018-05-16T01:57:14.356Z,5.00
2018-05-16T01:59:46.015Z,4.53
2018-05-16T02:02:18.375Z,5.20
2018-05-16T02:04:49.947Z,5.03
2018-05-16T02:07:21.196Z,5.70
2018-05-16T02:09:53.712Z,5.13
2018-05-16T02:12:23.772Z,5.23
2018-05-16T02:14:55.031Z,5.30
2018-05-16T02:17:25.051Z,5.40
2018-05-16T02:19:55.096Z,5.47
2018-05-16T02:22:25.262Z,5.10
2018-05-16T02:24:55.746Z,5.10
2018-05-16T02:27:26.801Z,5.23
2018-05-16T02:29:57.893Z,5.53
2018-05-16T02:32:28.202Z,5.27
2018-05-16T02:34:59.182Z,5.97
2018-05-16T02:37:29.416Z,5.73
2018-05-16T02:40:01.032Z,5.47
2018-05-16T02:42:33.218Z,6.17
2018-05-16T02:45:03.337Z,5.40
2018-05-16T02:47:34.310Z,5.27
2018-05-16T02:50:04.500Z,4.60
2018-05-16T02:52:36.140Z,4.80
2018-05-16T02:55:06.123Z,5.23
2018-05-16T02:57:36.477Z,4.80
2018-05-16T03:00:09.372Z,5.17
2018-05-16T03:02:39.711Z,5.37
2018-05-16T03:05:11.766Z,4.97
2018-05-16T03:07:43.628Z,5.17
2018-05-16T03:10:14.673Z,5.83
2018-05-16T03:12:45.508Z,5.47
2018-05-16T03:15:16.329Z,5.43
2018-05-16T03:17:46.975Z,5.63
2018-05-16T03:20:18.331Z,4.80
2018-05-16T03:22:48.445Z,5.30
2018-05-16T03:25:19.248Z,5.00
2018-05-16T03:27:49.388Z,5.70
2018-05-16T03:30:20.368Z,5.73
2018-05-16T03:32:51.588Z,6.00
2018-05-16T03:35:22.065Z,6.97
2018-05-16T03:37:53.157Z,6.17
2018-05-16T03:40:24.201Z,6.97
2018-05-16T03:42:54.306Z,7.57
2018-05-16T03:45:24.535Z,7.87
2018-05-16T03:47:57.533Z,7.80
2018-05-16T03:50:27.643Z,7.20
2018-05-16T03:52:57.832Z,7.30
2018-05-16T03:55:27.965Z,7.33
2018-05-16T03:58:09.478Z,8.10
2018-05-16T04:01:51.539Z,7.90
2018-05-16T04:04:23.155Z,8.50
2018-05-16T04:06:55.117Z,8.17
2018-05-16T04:09:26.242Z,7.93
2018-05-16T04:11:58.113Z,8.13
2018-05-16T04:14:30.376Z,6.90
2018-05-16T04:17:01.528Z,8.53
2018-05-16T04:19:34.478Z,8.00
2018-05-16T04:22:06.483Z,6.70
2018-05-16T04:24:36.121Z,5.70
2018-05-16T04:27:06.314Z,6.13
2018-05-16T04:29:36.939Z,5.57
2018-05-16T04:32:07.111Z,6.00
2018-05-16T04:34:37.216Z,5.67
2018-05-16T04:37:07.303Z,5.30
2018-05-16T04:39:38.236Z,4.97
2018-05-16T04:42:08.462Z,5.40
2018-05-16T04:44:38.971Z,5.30
2018-05-16T04:47:09.306Z,4.77
2018-05-16T04:49:39.059Z,5.03
2018-05-16T04:52:09.298Z,4.50
2018-05-16T04:54:39.367Z,5.20
2018-05-16T04:57:09.549Z,5.67
2018-05-16T04:59:39.657Z,6.30
2018-05-16T05:02:09.828Z,6.13
2018-05-16T05:04:40.063Z,6.60
2018-05-16T05:07:10.702Z,5.93
2018-05-16T05:09:41.364Z,6.07
2018-05-16T05:12:11.527Z,4.77
2018-05-16T05:14:41.945Z,3.13
2018-05-16T05:17:12.108Z,3.70
2018-05-16T05:19:42.909Z,3.90
2018-05-16T05:22:13.377Z,3.80
2018-05-16T05:24:43.571Z,4.07
2018-05-16T05:27:13.686Z,3.10
2018-05-16T05:29:43.867Z,2.93
2018-05-16T05:32:14.034Z,2.90
2018-05-16T05:34:44.245Z,3.00
2018-05-16T05:37:16.068Z,2.93
2018-05-16T05:39:47.623Z,2.70
2018-05-16T05:42:18.250Z,2.90
2018-05-16T05:44:48.991Z,2.60
2018-05-16T05:47:19.325Z,3.03
2018-05-16T05:49:49.654Z,3.70
2018-05-16T05:52:20.520Z,3.20
2018-05-16T05:54:50.736Z,2.90
2018-05-16T05:57:23.241Z,2.87
2018-05-16T05:59:54.161Z,3.37
2018-05-16T06:02:26.916Z,3.90
2018-05-16T06:04:58.610Z,3.70
2018-05-16T06:07:30.005Z,3.60
2018-05-16T06:10:01.155Z,3.50
2018-05-16T06:12:32.029Z,3.27
2018-05-16T06:15:02.226Z,3.70
2018-05-16T06:17:32.376Z,3.43
2018-05-16T06:20:02.085Z,3.50
2018-05-16T06:22:32.203Z,3.30
2018-05-16T06:25:02.420Z,3.90
2018-05-16T06:27:34.186Z,3.10
2018-05-16T06:30:04.455Z,3.53
2018-05-16T06:32:34.214Z,3.17
2018-05-16T06:35:04.422Z,3.70
2018-05-16T06:37:34.619Z,3.47
2018-05-16T06:40:04.772Z,3.40
2018-05-16T06:42:36.127Z,3.97
2018-05-16T06:45:06.622Z,3.40
2018-05-16T06:47:38.156Z,3.20
2018-05-16T06:50:08.563Z,3.60
2018-05-16T06:52:38.660Z,3.53
2018-05-16T06:55:08.788Z,3.43
2018-05-16T06:57:39.172Z,3.20
2018-05-16T07:00:09.534Z,3.27
2018-05-16T07:02:39.943Z,3.03
2018-05-16T07:05:10.154Z,3.00
2018-05-16T07:07:40.136Z,2.70
2018-05-16T07:10:10.120Z,2.77
2018-05-16T07:12:40.285Z,2.43
2018-05-16T07:15:10.261Z,2.37
2018-05-16T07:17:40.264Z,2.33
2018-05-16T07:20:10.245Z,2.63
2018-05-16T07:22:40.283Z,2.70
2018-05-16T07:25:10.279Z,2.50
2018-05-16T07:27:40.450Z,2.43
2018-05-16T07:30:11.280Z,2.23
2018-05-16T07:32:41.403Z,3.17
2018-05-16T07:35:12.764Z,2.67
2018-05-16T07:37:42.937Z,2.27
2018-05-16T07:40:13.565Z,2.93
2018-05-16T07:42:43.537Z,2.53
2018-05-16T07:45:13.973Z,3.03
2018-05-16T07:47:45.926Z,3.07
2018-05-16T07:50:16.028Z,2.70
2018-05-16T07:52:46.596Z,2.70
2018-05-16T07:55:17.410Z,2.47
2018-05-16T07:57:47.786Z,2.83
2018-05-16T08:00:17.856Z,2.30
2018-05-16T08:02:48.280Z,2.67
2018-05-16T08:05:18.708Z,2.20
2018-05-16T08:07:48.823Z,2.60
2018-05-16T08:10:18.978Z,2.80
2018-05-16T08:12:48.776Z,2.60
2018-05-16T08:15:18.527Z,2.97
2018-05-16T08:17:48.548Z,2.90
2018-05-16T08:20:18.660Z,2.80
2018-05-16T08:22:48.868Z,2.87
2018-05-16T08:25:19.099Z,3.30
2018-05-16T08:27:49.747Z,2.77
2018-05-16T08:30:19.974Z,2.70
2018-05-16T08:32:50.295Z,2.83
2018-05-16T08:35:21.036Z,2.90
2018-05-16T08:37:53.387Z,2.77
2018-05-16T08:40:23.747Z,2.77
2018-05-16T08:42:55.338Z,2.60
2018-05-16T08:45:25.960Z,2.50
2018-05-16T08:47:56.635Z,2.87
2018-05-16T08:50:26.755Z,2.80
2018-05-16T08:52:57.505Z,3.23
2018-05-16T08:55:30.002Z,3.00
2018-05-16T08:58:06.907Z,3.00
2018-05-16T09:00:38.448Z,3.10
2018-05-16T09:03:21.524Z,2.67
2018-05-16T09:05:51.976Z,3.07
2018-05-16T09:08:24.227Z,3.23
2018-05-16T09:10:54.341Z,3.10
2018-05-16T09:13:24.180Z,2.73
2018-05-16T09:16:31.311Z,2.80
2018-05-16T09:19:02.194Z,3.13
2018-05-16T09:21:33.515Z,3.17
2018-05-16T09:24:05.117Z,2.93
2018-05-16T09:26:35.818Z,3.20
2018-05-16T09:29:07.582Z,3.33
2018-05-16T09:34:46.827Z,3.07
2018-05-16T09:37:23.345Z,3.00
2018-05-16T09:39:56.115Z,2.70
2018-05-16T09:42:27.983Z,3.00
2018-05-16T09:44:58.659Z,3.20
2018-05-16T09:47:29.674Z,2.97
2018-05-16T09:50:00.510Z,3.07
2018-05-16T09:52:30.928Z,3.07
2018-05-16T09:55:22.747Z,3.33
2018-05-16T09:57:54.276Z,2.87
2018-05-16T10:00:39.781Z,3.00
2018-05-16T10:03:33.041Z,3.17
2018-05-16T10:06:03.943Z,3.20
2018-05-16T10:08:57.291Z,3.07
2018-05-16T10:11:27.782Z,3.10
2018-05-16T10:14:17.705Z,2.90
2018-05-16T10:16:48.008Z,2.90
2018-05-16T10:19:27.539Z,3.20
2018-05-16T10:21:57.761Z,3.20
2018-05-16T10:24:39.867Z,3.27
2018-05-16T10:27:10.004Z,3.27
2018-05-16T10:29:46.504Z,3.20
2018-05-16T10:32:16.873Z,2.93
2018-05-16T10:37:42.534Z,3.10
2018-05-16T10:40:12.736Z,3.23
2018-05-16T10:42:42.860Z,3.30
2018-05-16T10:48:20.888Z,3.73
2018-05-16T10:50:53.461Z,3.30
2018-05-16T10:53:23.781Z,3.60
2018-05-16T10:55:54.119Z,3.30
2018-05-16T10:58:24.280Z,3.23
2018-05-16T11:00:55.848Z,3.30
2018-05-16T11:03:26.436Z,3.30
2018-05-16T11:06:02.238Z,3.37
2018-05-16T11:08:36.034Z,3.53
2018-05-16T11:11:13.765Z,3.57
2018-05-16T11:13:44.471Z,3.13
2018-05-16T11:16:14.848Z,3.30
2018-05-16T11:18:45.271Z,3.33
2018-05-16T11:21:15.431Z,3.40
2018-05-16T11:26:50.711Z,3.33
2018-05-16T11:29:23.726Z,3.13
2018-05-16T11:31:53.928Z,3.10
2018-05-16T11:34:24.552Z,3.17
2018-05-16T11:36:54.805Z,3.50
2018-05-16T11:39:24.926Z,3.20
2018-05-16T11:44:58.103Z,3.20
2018-05-16T11:47:28.216Z,3.30
2018-05-16T11:50:02.226Z,3.43
2018-05-16T11:55:32.027Z,3.43
2018-05-16T11:58:02.282Z,3.20
2018-05-16T12:00:48.592Z,2.97
2018-05-16T12:03:18.667Z,3.20
2018-05-16T12:05:53.867Z,3.57
2018-05-16T12:08:24.015Z,3.50
2018-05-16T12:10:54.435Z,3.00
2018-05-16T12:13:43.804Z,3.40
2018-05-16T12:16:16.582Z,3.30
2018-05-16T12:22:04.181Z,3.23
2018-05-16T12:27:45.166Z,3.07
2018-05-16T12:30:36.967Z,3.13
2018-05-16T12:36:12.333Z,2.90
2018-05-16T12:38:44.940Z,2.73
2018-05-16T12:44:13.519Z,3.10
2018-05-16T12:46:45.224Z,2.97
2018-05-16T12:49:26.953Z,2.93
2018-05-16T12:51:57.492Z,2.93
2018-05-16T12:54:34.884Z,3.17
2018-05-16T12:57:22.211Z,3.83
2018-05-16T12:59:53.102Z,3.07
2018-05-16T13:02:22.845Z,2.80
2018-05-16T13:04:56.404Z,2.90
2018-05-16T13:10:27.372Z,5.53
2018-05-16T13:12:57.839Z,3.83
2018-05-16T13:15:30.308Z,3.40
2018-05-16T13:18:00.458Z,3.43
2018-05-16T13:20:30.639Z,2.80
2018-05-16T13:23:00.769Z,3.33
2018-05-16T13:25:30.887Z,3.17
2018-05-16T13:33:56.108Z,3.40
2018-05-16T13:36:26.278Z,3.53
2018-05-16T13:38:56.720Z,3.77
2018-05-16T13:41:31.721Z,3.60
2018-05-16T13:44:01.921Z,2.83
2018-05-16T13:46:45.176Z,3.63
2018-05-16T13:49:15.409Z,3.60
2018-05-16T13:51:53.515Z,3.47
2018-05-16T13:54:23.728Z,4.57
2018-05-16T13:56:57.914Z,3.87
2018-05-16T13:59:28.240Z,3.80
2018-05-16T14:01:59.014Z,4.53
2018-05-16T14:04:29.340Z,3.90
2018-05-16T14:06:59.851Z,4.00
2018-05-16T14:09:30.316Z,4.30
2018-05-16T14:15:17.564Z,4.30
2018-05-16T14:18:05.493Z,6.00
2018-05-16T14:20:36.504Z,9.07
2018-05-16T14:23:15.071Z,5.70
2018-05-16T14:25:45.658Z,5.33
2018-05-16T14:28:16.590Z,6.17
2018-05-16T14:30:47.384Z,5.77
2018-05-16T14:33:18.060Z,6.53
2018-05-16T14:35:48.748Z,6.10
2018-05-16T14:38:19.365Z,6.63
2018-05-16T14:44:02.367Z,6.10
2018-05-16T14:46:49.497Z,5.33
2018-05-16T14:49:20.329Z,4.40
2018-05-16T14:52:09.414Z,4.50
2018-05-16T14:57:16.395Z,4.80
2018-05-16T14:59:59.956Z,4.13
2018-05-16T15:02:31.077Z,4.00
2018-05-16T15:05:01.821Z,4.20
2018-05-16T15:07:50.163Z,4.70
2018-05-16T15:19:26.208Z,13.80
2018-05-16T15:22:04.410Z,5.00
2018-05-16T15:24:35.626Z,4.50
2018-05-16T15:30:01.924Z,4.37
2018-05-16T15:32:35.779Z,4.67
2018-05-16T15:35:07.337Z,4.90
2018-05-16T15:37:37.811Z,4.77
2018-05-16T15:40:08.690Z,5.17
2018-05-16T15:42:38.922Z,4.40
2018-05-16T15:45:13.033Z,4.60
2018-05-16T15:48:00.390Z,5.00
2018-05-16T15:50:45.834Z,4.93
2018-05-16T15:53:56.201Z,5.10
2018-05-16T15:56:27.238Z,5.50
2018-05-16T15:58:57.822Z,5.03
2018-05-16T16:01:28.611Z,5.03
2018-05-16T16:04:02.723Z,5.20
2018-05-16T16:06:35.568Z,5.10
2018-05-16T16:12:00.117Z,4.80
2018-05-16T16:14:35.918Z,5.03
2018-05-16T16:20:14.800Z,21.70
2018-05-16T16:22:45.584Z,4.80
2018-05-16T16:25:18.096Z,4.37
2018-05-16T16:27:48.785Z,4.17
2018-05-16T16:33:14.616Z,4.63
2018-05-16T16:35:46.702Z,3.83
2018-05-16T16:38:17.675Z,4.00
2018-05-16T16:40:52.067Z,4.47
2018-05-16T16:43:27.311Z,4.07
2018-05-16T16:45:57.900Z,3.93
2018-05-16T16:48:30.792Z,3.93
2018-05-16T16:51:01.972Z,3.60
2018-05-16T16:53:33.493Z,4.03
2018-05-16T16:56:06.101Z,3.80
2018-05-16T16:58:36.945Z,3.80
2018-05-16T17:01:07.537Z,4.00
2018-05-16T17:03:38.065Z,4.10
2018-05-16T17:06:09.037Z,3.93
2018-05-16T17:08:41.938Z,4.27
2018-05-16T17:11:22.858Z,3.90
2018-05-16T17:13:53.706Z,4.43
2018-05-16T17:16:27.817Z,5.07
2018-05-16T17:19:03.508Z,6.80
2018-05-16T17:21:33.940Z,5.90
2018-05-16T17:24:04.405Z,4.83
2018-05-16T17:26:34.838Z,5.53
2018-05-16T17:29:06.080Z,6.20
2018-05-16T17:31:40.198Z,6.80
2018-05-16T17:34:10.973Z,6.40
2018-05-16T17:36:41.509Z,5.80
2018-05-16T17:39:16.295Z,13.27
2018-05-16T17:41:53.418Z,25.77
2018-05-16T17:44:23.910Z,8.27
2018-05-16T17:46:54.392Z,14.97
2018-05-16T17:55:26.661Z,11.10
2018-05-16T17:57:59.651Z,8.63
2018-05-16T18:00:31.029Z,5.10
2018-05-16T18:03:01.683Z,5.20
2018-05-16T18:05:32.257Z,4.63
2018-05-16T18:08:33.156Z,9.57
2018-05-16T18:11:17.650Z,14.50
2018-05-16T18:16:00.232Z,9.77
2018-05-16T18:18:31.171Z,5.00
2018-05-16T18:21:01.758Z,6.83
2018-05-16T18:23:32.396Z,5.33
2018-05-16T18:26:03.013Z,5.23
2018-05-16T18:28:33.560Z,4.70
2018-05-16T18:31:05.305Z,5.10
2018-05-16T18:33:38.734Z,5.63
2018-05-16T18:36:09.441Z,6.30
2018-05-16T18:38:40.673Z,7.57
2018-05-16T18:41:11.248Z,5.60
2018-05-16T18:43:46.553Z,7.20
2018-05-16T18:49:19.569Z,9.23
2018-05-16T18:51:53.889Z,9.10
2018-05-16T18:54:24.516Z,10.13
2018-05-16T18:57:00.453Z,12.97
2018-05-16T18:59:32.190Z,19.90
2018-05-16T19:02:18.124Z,19.17
2018-05-16T19:04:49.407Z,21.83
2018-05-16T19:07:21.140Z,29.97
2018-05-16T19:09:52.089Z,18.63
2018-05-16T19:12:22.703Z,15.67
2018-05-16T19:14:53.424Z,14.87
2018-05-16T19:17:25.536Z,24.17
2018-05-16T19:20:05.916Z,11.67
2018-05-16T19:22:53.825Z,9.20
2018-05-16T19:25:28.364Z,9.33
2018-05-16T19:28:01.000Z,7.27
2018-05-16T19:30:33.149Z,7.20
2018-05-16T19:33:04.457Z,6.50
2018-05-16T19:35:35.956Z,6.33
2018-05-16T19:38:06.651Z,5.53
2018-05-16T19:40:50.069Z,6.03
2018-05-16T19:43:39.634Z,5.33
2018-05-16T19:46:19.510Z,6.40
2018-05-16T19:48:54.152Z,5.60
2018-05-16T19:51:57.525Z,9.50
2018-05-16T19:54:36.816Z,11.13
2018-05-16T19:57:07.702Z,10.03
2018-05-16T19:59:38.311Z,10.63
2018-05-16T20:02:09.573Z,13.80
2018-05-16T20:04:40.214Z,9.77
2018-05-16T20:07:11.909Z,11.97
2018-05-16T20:09:41.979Z,10.87
2018-05-16T20:12:12.584Z,8.93
2018-05-16T20:14:43.213Z,10.83
2018-05-16T20:17:13.689Z,8.83
2018-05-16T20:19:44.569Z,7.70
2018-05-16T20:22:15.343Z,7.60
2018-05-16T20:24:46.068Z,8.60
2018-05-16T20:27:16.868Z,8.57
2018-05-16T20:29:47.513Z,7.77
2018-05-16T20:32:17.746Z,9.37
2018-05-16T20:34:48.318Z,11.13
2018-05-16T20:37:20.151Z,20.07
2018-05-16T20:39:50.392Z,15.53
2018-05-16T20:42:21.207Z,16.27
2018-05-16T20:44:51.618Z,17.77
2018-05-16T20:47:21.854Z,16.20
2018-05-16T20:49:52.272Z,15.13
2018-05-16T20:52:22.548Z,11.77
2018-05-16T20:54:52.932Z,11.23
2018-05-16T20:57:44.860Z,12.33
2018-05-16T21:00:14.995Z,14.60
2018-05-16T21:02:46.545Z,9.67
2018-05-16T21:05:17.220Z,9.43
2018-05-16T21:07:46.975Z,9.93
2018-05-16T21:10:17.117Z,9.23
2018-05-16T21:12:47.267Z,8.50
2018-05-16T21:15:21.307Z,8.50
2018-05-16T21:17:52.083Z,8.70
2018-05-16T21:20:22.287Z,8.07
2018-05-16T21:22:52.462Z,7.33
2018-05-16T21:25:22.527Z,6.90
2018-05-16T21:27:53.183Z,7.10
2018-05-16T21:30:23.693Z,7.00
2018-05-16T21:32:53.929Z,7.67
2018-05-16T21:35:24.046Z,6.93
2018-05-16T21:37:54.656Z,7.10
2018-05-16T21:40:24.903Z,7.53
2018-05-16T21:42:55.007Z,6.83
2018-05-16T21:45:25.102Z,5.60
2018-05-16T21:47:55.908Z,6.10
2018-05-16T21:50:25.983Z,6.30
2018-05-16T21:52:56.113Z,6.00
2018-05-16T21:55:26.219Z,5.40
2018-05-16T21:57:56.361Z,6.30
2018-05-16T22:00:26.952Z,6.10
2018-05-16T22:02:58.229Z,5.80
2018-05-16T22:05:28.488Z,5.80
2018-05-16T22:07:58.660Z,5.30
2018-05-16T22:10:28.848Z,5.40
2018-05-16T22:13:01.216Z,5.23
2018-05-16T22:15:31.332Z,5.27
2018-05-16T22:18:05.944Z,5.27
2018-05-16T22:20:35.713Z,5.47
2018-05-16T22:23:06.232Z,5.30
2018-05-16T22:25:36.364Z,6.10
2018-05-16T22:28:06.601Z,5.13
2018-05-16T22:30:42.052Z,5.30
2018-05-16T22:33:18.300Z,5.47
2018-05-16T22:35:53.745Z,5.40
2018-05-16T22:38:29.296Z,5.57
2018-05-16T22:41:04.231Z,5.80
2018-05-16T22:43:34.439Z,6.27
2018-05-16T22:46:04.601Z,5.87
2018-05-16T22:48:34.763Z,5.30
2018-05-16T22:51:04.921Z,5.80
2018-05-16T22:53:34.681Z,5.67
2018-05-16T22:56:04.791Z,6.40
2018-05-16T22:58:34.546Z,6.37
2018-05-16T23:01:05.233Z,6.63
2018-05-16T23:03:34.907Z,6.47
2018-05-16T23:06:05.022Z,6.97
2018-05-16T23:08:35.137Z,7.60
2018-05-16T23:11:05.347Z,7.60
2018-05-16T23:13:35.493Z,7.83
2018-05-16T23:16:05.603Z,8.13
2018-05-16T23:18:35.728Z,7.90
2018-05-16T23:21:05.846Z,7.73
2018-05-16T23:23:35.963Z,8.53
2018-05-16T23:26:06.088Z,12.53
2018-05-16T23:28:35.847Z,11.93
2018-05-16T23:31:05.918Z,10.97
2018-05-16T23:33:36.041Z,15.23
2018-05-16T23:36:06.426Z,14.50
2018-05-16T23:38:37.907Z,15.57
2018-05-16T23:41:10.860Z,17.37
2018-05-16T23:43:41.945Z,17.23
2018-05-16T23:46:15.945Z,16.50
2018-05-16T23:48:45.665Z,15.83
2018-05-16T23:51:16.397Z,14.73
2018-05-16T23:53:46.816Z,15.50
2018-05-16T23:56:17.872Z,17.80
2018-05-16T23:58:48.038Z,17.03
